Time;durP1;ratioP1;P1;durP2;ratioP2;P2;SDS_P1;SDS_P2;PMS_P1;PMS_P2;Temp;Humidity;BMP_temperature;BMP_pressure;BME280_temperature;BME280_humidity;BME280_pressure;Samples;Min_cycle;Max_cycle;Signal;HPM_P1;HPM_P2
2023/02/06 00:01:28;;;;;;;0.10;0.10;;;;;;;6.61;58.08;103619.19;7356370;19;20010;-59
2023/02/06 00:03:54;;;;;;;0.10;0.10;;;;;;;6.80;57.90;103645.91;7362427;19;20030;-56
2023/02/06 00:06:19;;;;;;;0.10;0.10;;;;;;;6.83;58.04;103648.59;7361987;19;20088;-58
2023/02/06 00:08:45;;;;;;;0.00;0.00;;;;;;;6.74;57.94;103620.53;7361243;19;20784;-58
2023/02/06 00:11:12;;;;;;;0.00;0.00;;;;;;;6.88;58.22;103645.34;7360642;19;22155;-58
2023/02/06 00:13:38;;;;;;;0.10;0.10;;;;;;;6.78;58.10;103622.44;7358196;19;20369;-57
2023/02/06 00:16:04;;;;;;;0.10;0.10;;;;;;;6.92;58.08;103644.66;7362595;19;20097;-58
2023/02/06 00:18:30;;;;;;;0.10;0.10;;;;;;;6.93;58.20;103638.63;7361139;19;20021;-58
2023/02/06 00:20:55;;;;;;;0.00;0.00;;;;;;;6.89;58.26;103622.84;7361426;19;20342;-57
2023/02/06 00:23:21;;;;;;;0.10;0.10;;;;;;;7.05;58.34;103643.44;7358580;19;20013;-58
2023/02/06 00:25:47;;;;;;;0.10;0.10;;;;;;;7.07;57.95;103641.78;7360333;19;20026;-58
2023/02/06 00:28:12;;;;;;;0.03;0.03;;;;;;;6.96;58.39;103617.97;7360839;19;20006;-59
2023/02/06 00:30:38;;;;;;;0.10;0.10;;;;;;;7.15;58.44;103649.88;7359296;19;20017;-58
2023/02/06 00:33:03;;;;;;;0.00;0.00;;;;;;;7.17;58.12;103643.03;7360664;19;20014;-58
2023/02/06 00:35:28;;;;;;;0.00;0.00;;;;;;;7.09;58.20;103629.72;7363082;19;20022;-59
2023/02/06 00:37:55;;;;;;;0.00;0.00;;;;;;;7.23;58.23;103643.25;7359797;19;20017;-58
2023/02/06 00:40:20;;;;;;;0.10;0.10;;;;;;;7.08;58.10;103611.47;7360297;19;20524;-58
2023/02/06 00:42:46;;;;;;;0.08;0.08;;;;;;;7.24;57.88;103630.31;7359552;19;20014;-57
2023/02/06 00:45:12;;;;;;;0.10;0.10;;;;;;;7.26;57.74;103627.78;7361629;19;20042;-57
2023/02/06 00:47:37;;;;;;;0.10;0.10;;;;;;;7.21;57.89;103614.63;7360623;19;20079;-57
2023/02/06 00:50:03;;;;;;;0.10;0.10;;;;;;;7.29;57.85;103614.88;7357956;19;20029;-58
2023/02/06 00:52:29;;;;;;;0.10;0.10;;;;;;;7.21;57.86;103603.34;7354356;19;20010;-58
2023/02/06 00:54:54;;;;;;;0.10;0.10;;;;;;;7.32;58.15;103606.34;7354112;19;20023;-58
2023/02/06 00:57:20;;;;;;;0.00;0.00;;;;;;;7.33;58.19;103614.19;7357334;19;20010;-56
2023/02/06 00:59:45;;;;;;;0.08;0.08;;;;;;;7.41;57.70;103610.16;7357216;19;20005;-57
2023/02/06 01:02:10;;;;;;;0.00;0.00;;;;;;;7.37;57.98;103602.19;7355454;19;20023;-58
2023/02/06 01:04:36;;;;;;;0.03;0.03;;;;;;;7.44;58.34;103607.66;7356510;19;20770;-59
2023/02/06 01:07:01;;;;;;;0.08;0.08;;;;;;;7.26;58.43;103562.81;7357557;19;20010;-57
2023/02/06 01:09:27;;;;;;;0.10;0.10;;;;;;;7.46;58.32;103595.63;7357741;19;20013;-58
2023/02/06 01:11:52;;;;;;;0.10;0.10;;;;;;;7.36;58.06;103572.72;7359782;19;20588;-58
2023/02/06 01:14:18;;;;;;;0.10;0.10;;;;;;;7.43;58.20;103584.22;7356808;19;20435;-58
2023/02/06 01:16:43;;;;;;;0.00;0.00;;;;;;;7.44;58.56;103576.44;7356449;19;20982;-56
2023/02/06 01:19:08;;;;;;;0.10;0.10;;;;;;;7.44;58.34;103586.84;7360248;19;20014;-57
2023/02/06 01:21:35;;;;;;;0.03;0.03;;;;;;;7.51;58.38;103591.47;7358013;19;20046;-57
2023/02/06 01:24:00;;;;;;;0.10;0.10;;;;;;;7.49;58.18;103582.72;7360489;19;20037;-58
2023/02/06 01:26:26;;;;;;;0.03;0.03;;;;;;;7.44;58.09;103570.38;7357858;19;20031;-58
2023/02/06 01:28:52;;;;;;;0.00;0.00;;;;;;;7.47;58.26;103578.28;7359875;19;20033;-58
2023/02/06 01:31:26;;;;;;;0.00;0.00;;;;;;;7.49;58.13;103576.63;7360153;19;20074;-58
2023/02/06 01:33:53;;;;;;;0.00;0.00;;;;;;;7.38;58.25;103560.63;7355390;19;20010;-58
2023/02/06 01:36:20;;;;;;;0.00;0.00;;;;;;;7.45;58.39;103573.06;7357169;19;20064;-58
2023/02/06 01:38:46;;;;;;;0.00;0.00;;;;;;;7.37;58.27;103558.88;7360288;19;20012;-59
2023/02/06 01:41:12;;;;;;;0.10;0.10;;;;;;;7.36;58.23;103564.91;7358963;19;20025;-58
2023/02/06 01:43:41;;;;;;;0.00;0.00;;;;;;;7.29;58.28;103557.69;7357801;19;20103;-58
2023/02/06 01:46:07;;;;;;;0.10;0.10;;;;;;;7.41;58.50;103580.69;7358811;19;20469;-57
2023/02/06 01:48:49;;;;;;;0.00;0.00;;;;;;;7.36;58.00;103566.63;7357979;19;21034;-59
2023/02/06 01:51:18;;;;;;;0.00;0.00;;;;;;;7.35;58.49;103565.75;7357052;19;20022;-58
2023/02/06 01:53:48;;;;;;;0.00;0.00;;;;;;;7.25;58.28;103553.25;7355376;19;20029;-58
2023/02/06 01:56:18;;;;;;;0.10;0.10;;;;;;;7.29;58.67;103557.69;7358008;19;20010;-58
2023/02/06 01:58:47;;;;;;;0.00;0.00;;;;;;;7.34;58.44;103563.94;7357741;19;20046;-59
2023/02/06 02:01:12;;;;;;;0.05;0.05;;;;;;;7.32;58.73;103565.63;7358632;19;20017;-57
2023/02/06 02:03:42;;;;;;;0.00;0.00;;;;;;;7.29;58.62;103560.28;7351481;19;20006;-57
2023/02/06 02:06:11;;;;;;;0.10;0.10;;;;;;;7.33;59.00;103566.50;7355720;19;20009;-59
2023/02/06 02:08:40;;;;;;;0.00;0.00;;;;;;;7.21;58.83;103546.16;7359761;19;20006;-58
2023/02/06 02:11:07;;;;;;;0.03;0.03;;;;;;;7.31;58.81;103568.19;7354544;19;20016;-58
2023/02/06 02:13:35;;;;;;;0.00;0.00;;;;;;;7.29;58.58;103561.19;7359222;19;20049;-58
2023/02/06 02:16:33;;;;;;;0.10;0.10;;;;;;;7.31;58.20;103563.84;7357396;19;20025;-58
2023/02/06 02:19:34;;;;;;;0.00;0.00;;;;;;;7.29;58.12;103560.28;7251672;19;2004390;-58
2023/02/06 02:22:25;;;;;;;0.10;0.10;;;;;;;7.28;58.45;103561.13;7256638;19;2003998;-59
2023/02/06 02:25:23;;;;;;;0.00;0.00;;;;;;;7.13;58.81;103531.97;7355499;19;21113;-58
2023/02/06 02:28:34;;;;;;;0.00;0.00;;;;;;;7.25;58.44;103550.66;7257107;19;2004780;-59
2023/02/06 02:31:29;;;;;;;0.00;0.00;;;;;;;7.22;58.48;103547.91;7257256;19;2004556;-58
2023/02/06 02:34:26;;;;;;;0.00;0.00;;;;;;;7.22;58.52;103540.13;7253911;19;2004386;-58
2023/02/06 02:37:01;;;;;;;0.00;0.00;;;;;;;7.13;58.30;103527.66;7254372;19;2004550;-57
2023/02/06 02:39:50;;;;;;;0.00;0.00;;;;;;;7.19;58.85;103540.00;7358891;19;20034;-58
2023/02/06 02:42:41;;;;;;;0.05;0.05;;;;;;;7.21;58.39;103525.38;7357187;19;20574;-58
2023/02/06 02:45:19;;;;;;;0.10;0.10;;;;;;;7.17;58.73;103526.97;7355656;19;20038;-57
2023/02/06 02:47:52;;;;;;;0.00;0.00;;;;;;;7.08;58.98;103507.53;7358023;19;20495;-58
2023/02/06 02:50:19;;;;;;;0.00;0.00;;;;;;;7.14;59.06;103512.97;7356616;19;20017;-56
2023/02/06 02:52:45;;;;;;;0.10;0.10;;;;;;;7.12;58.86;103514.63;7357226;19;20030;-58
2023/02/06 02:55:21;;;;;;;0.00;0.00;;;;;;;7.12;58.50;103512.03;7356117;19;20865;-58
2023/02/06 02:57:50;;;;;;;0.03;0.03;;;;;;;7.16;58.66;103516.50;7348078;19;20022;-58
2023/02/06 03:00:17;;;;;;;0.00;0.00;;;;;;;7.22;59.16;103516.72;7358860;19;20017;-57
2023/02/06 03:02:47;;;;;;;0.00;0.00;;;;;;;7.14;59.11;103502.56;7360601;19;20048;-58
2023/02/06 03:05:19;;;;;;;0.10;0.10;;;;;;;7.18;59.13;103504.44;7353933;19;20078;-57
2023/02/06 03:07:47;;;;;;;0.10;0.10;;;;;;;7.23;58.96;103513.28;7358680;19;20021;-58
2023/02/06 03:10:36;;;;;;;0.03;0.03;;;;;;;7.15;58.80;103488.78;7359418;19;20043;-56
2023/02/06 03:13:15;;;;;;;0.00;0.00;;;;;;;7.26;58.90;103497.81;7359778;19;20742;-57
2023/02/06 03:16:04;;;;;;;0.10;0.10;;;;;;;7.29;59.12;103497.91;7358711;19;20018;-58
2023/02/06 03:18:39;;;;;;;0.00;0.00;;;;;;;7.30;58.79;103499.72;7355152;19;20015;-58
2023/02/06 03:21:07;;;;;;;0.10;0.10;;;;;;;7.31;59.46;103491.06;7357012;19;20007;-57
2023/02/06 03:23:37;;;;;;;0.00;0.00;;;;;;;6.96;59.10;103430.94;7351955;19;20035;-59
2023/02/06 03:26:07;;;;;;;0.00;0.00;;;;;;;7.33;59.20;103489.41;7358106;19;20399;-56
2023/02/06 03:28:54;;;;;;;0.10;0.10;;;;;;;7.40;59.04;103490.50;7355590;19;20041;-59
2023/02/06 03:31:24;;;;;;;;;;;;;;;7.44;58.67;103492.38;7359462;19;20545;-58
2023/02/06 03:34:19;;;;;;;0.10;0.10;;;;;;;7.38;58.87;103471.38;7356794;19;19982;-58
2023/02/06 03:36:44;;;;;;;0.10;0.10;;;;;;;7.33;59.01;103457.34;7256848;19;2004411;-58
2023/02/06 03:39:11;;;;;;;0.00;0.00;;;;;;;7.33;59.14;103462.53;7352942;19;20069;-58
2023/02/06 03:41:38;;;;;;;0.00;0.00;;;;;;;7.35;59.39;103456.56;7356820;19;20010;-58
2023/02/06 03:44:12;;;;;;;0.00;0.00;;;;;;;7.45;58.83;103473.34;7356968;19;20035;-58
2023/02/06 03:46:40;;;;;;;0.10;0.10;;;;;;;6.91;59.33;103380.53;7359529;19;20016;-58
2023/02/06 03:49:08;;;;;;;0.00;0.00;;;;;;;7.43;59.01;103470.69;7357678;19;20017;-58
2023/02/06 03:51:45;;;;;;;0.03;0.03;;;;;;;7.32;59.27;103451.25;7358072;19;20030;-57
2023/02/06 03:54:15;;;;;;;0.10;0.10;;;;;;;7.45;59.12;103462.94;7354206;19;20055;-58
2023/02/06 03:56:46;;;;;;;0.03;0.03;;;;;;;7.45;59.10;103463.84;7357465;19;20023;-58
2023/02/06 03:59:13;;;;;;;0.00;0.00;;;;;;;7.30;59.49;103439.94;7355472;19;20014;-57
2023/02/06 04:01:46;;;;;;;0.08;0.08;;;;;;;7.30;59.35;103442.53;7357883;19;20749;-57
2023/02/06 04:04:15;;;;;;;0.10;0.10;;;;;;;7.35;59.54;103451.38;7331126;19;20006;-57
2023/02/06 04:06:40;;;;;;;0.10;0.10;;;;;;;7.02;59.45;103392.16;7357489;19;20022;-58
2023/02/06 04:09:06;;;;;;;0.10;0.10;;;;;;;7.33;59.64;103447.81;7358727;19;20030;-58
2023/02/06 04:11:31;;;;;;;0.10;0.10;;;;;;;7.17;59.54;103424.72;7356613;19;20027;-58
2023/02/06 04:13:56;;;;;;;0.10;0.10;;;;;;;7.11;59.18;103407.22;7356842;19;20013;-58
2023/02/06 04:16:22;;;;;;;0.00;0.00;;;;;;;7.23;59.34;103435.31;7353893;19;20015;-58
2023/02/06 04:18:47;;;;;;;0.08;0.08;;;;;;;7.16;59.45;103430.75;7359159;19;20014;-56
2023/02/06 04:21:13;;;;;;;0.00;0.00;;;;;;;7.01;59.11;103410.31;7344727;19;20121;-58
2023/02/06 04:23:38;;;;;;;0.00;0.00;;;;;;;6.71;59.45;103366.81;7361944;19;20007;-59
2023/02/06 04:26:03;;;;;;;0.00;0.00;;;;;;;6.91;59.39;103410.81;7360943;19;20020;-58
2023/02/06 04:28:29;;;;;;;0.00;0.00;;;;;;;6.85;59.29;103411.47;7364880;19;20376;-58
2023/02/06 04:30:54;;;;;;;0.00;0.00;;;;;;;6.83;59.50;103423.50;7357092;19;20010;-58
2023/02/06 04:33:20;;;;;;;0.10;0.10;;;;;;;6.73;59.36;103416.22;7362081;19;20014;-59
2023/02/06 04:35:47;;;;;;;0.00;0.00;;;;;;;6.52;59.32;103381.69;7366157;19;20014;-57
2023/02/06 04:38:12;;;;;;;0.00;0.00;;;;;;;6.64;59.63;103415.88;7361074;19;20011;-58
2023/02/06 04:40:38;;;;;;;0.00;0.00;;;;;;;6.48;59.49;103394.53;7364031;19;20097;-59
2023/02/06 04:43:03;;;;;;;0.00;0.00;;;;;;;6.41;59.59;103392.53;7364413;19;20007;-58
2023/02/06 04:45:29;;;;;;;0.10;0.10;;;;;;;6.40;59.27;103401.16;7362501;19;20094;-57
2023/02/06 04:47:54;;;;;;;0.10;0.10;;;;;;;6.04;59.62;103343.56;7360015;19;20021;-58
2023/02/06 04:50:19;;;;;;;0.10;0.10;;;;;;;6.24;59.97;103384.13;7365558;19;20019;-58
2023/02/06 04:52:45;;;;;;;0.00;0.00;;;;;;;6.21;59.73;103391.78;7362175;19;20631;-58
2023/02/06 04:55:10;;;;;;;0.10;0.10;;;;;;;6.18;59.84;103386.50;7362209;19;20355;-58
2023/02/06 04:57:36;;;;;;;0.10;0.10;;;;;;;6.10;59.86;103371.44;7360799;19;20066;-58
2023/02/06 05:00:04;;;;;;;0.08;0.08;;;;;;;6.00;60.03;103371.94;7363707;19;20014;-56
2023/02/06 05:02:29;;;;;;;0.00;0.00;;;;;;;6.00;60.00;103378.00;7359042;19;20069;-58
2023/02/06 05:04:55;;;;;;;0.10;0.10;;;;;;;5.75;60.11;103334.63;7365500;19;20014;-59
2023/02/06 05:07:20;;;;;;;0.00;0.00;;;;;;;5.92;60.06;103385.44;7361509;19;20810;-58
2023/02/06 05:09:45;;;;;;;0.00;0.00;;;;;;;5.76;60.01;103372.69;7363871;19;20006;-58
2023/02/06 05:12:11;;;;;;;0.10;0.10;;;;;;;5.82;60.30;103377.22;7361738;19;20006;-59
2023/02/06 05:14:36;;;;;;;0.00;0.00;;;;;;;5.77;60.31;103379.63;7364200;19;20010;-56
2023/02/06 05:17:02;;;;;;;0.00;0.00;;;;;;;5.77;60.22;103387.41;7359119;19;20011;-58
2023/02/06 05:19:27;;;;;;;0.10;0.10;;;;;;;5.72;60.08;103386.34;7359509;19;20081;-59
2023/02/06 05:21:53;;;;;;;0.10;0.10;;;;;;;5.64;60.05;103373.09;7360454;19;20039;-57
2023/02/06 05:24:18;;;;;;;0.00;0.00;;;;;;;5.67;59.87;103388.75;7361273;19;20620;-58
2023/02/06 05:26:45;;;;;;;0.05;0.05;;;;;;;5.50;59.97;103355.19;7363695;19;20074;-58
2023/02/06 05:29:10;;;;;;;0.00;0.00;;;;;;;5.59;59.96;103378.91;7363126;19;20114;-57
2023/02/06 05:31:36;;;;;;;0.00;0.00;;;;;;;5.42;60.21;103355.78;7357206;19;20462;-58
2023/02/06 05:34:01;;;;;;;0.10;0.10;;;;;;;5.38;59.93;103355.59;7363299;19;20044;-58
2023/02/06 05:36:28;;;;;;;0.10;0.10;;;;;;;5.29;60.27;103343.13;7362214;19;20477;-58
2023/02/06 05:38:53;;;;;;;0.10;0.10;;;;;;;5.27;60.39;103341.28;7364279;19;20094;-58
2023/02/06 05:41:18;;;;;;;0.10;0.10;;;;;;;5.33;60.34;103352.81;7360724;19;20039;-59
2023/02/06 05:43:44;;;;;;;0.10;0.10;;;;;;;5.33;60.29;103360.59;7360532;19;20069;-56
2023/02/06 05:46:11;;;;;;;0.05;0.05;;;;;;;5.27;60.15;103354.22;7358479;19;20983;-59
2023/02/06 05:48:37;;;;;;;0.10;0.10;;;;;;;5.25;60.13;103359.38;7363126;19;20007;-58
2023/02/06 05:51:03;;;;;;;0.10;0.10;;;;;;;5.19;60.39;103357.41;7359837;19;20098;-58
2023/02/06 05:53:28;;;;;;;0.00;0.00;;;;;;;4.97;60.28;103335.69;7361740;19;20253;-56
2023/02/06 05:55:55;;;;;;;0.10;0.10;;;;;;;5.14;60.13;103365.81;7359352;19;20418;-57
2023/02/06 05:58:20;;;;;;;0.10;0.10;;;;;;;5.04;60.38;103355.88;7361640;19;20018;-58
2023/02/06 06:00:46;;;;;;;0.10;0.10;;;;;;;5.00;60.49;103364.31;7361151;19;20781;-58
2023/02/06 06:03:11;;;;;;;0.00;0.00;;;;;;;4.84;60.59;103340.38;7360447;19;20027;-56
2023/02/06 06:05:36;;;;;;;0.00;0.00;;;;;;;4.84;60.70;103337.78;7360545;19;20014;-58
2023/02/06 06:08:02;;;;;;;0.00;0.00;;;;;;;4.93;60.57;103368.38;7363965;19;20533;-58
2023/02/06 06:10:27;;;;;;;0.00;0.00;;;;;;;4.87;60.85;103358.63;7359837;19;20007;-58
2023/02/06 06:12:53;;;;;;;0.10;0.10;;;;;;;4.84;60.76;103363.66;7362583;19;20749;-58
2023/02/06 06:15:18;;;;;;;0.10;0.10;;;;;;;4.25;60.73;103268.75;7355534;19;20010;-57
2023/02/06 06:17:44;;;;;;;0.10;0.10;;;;;;;4.71;60.93;103356.16;7362321;19;20023;-56
2023/02/06 06:20:09;;;;;;;0.10;0.10;;;;;;;4.68;61.24;103356.06;7358511;19;20082;-58
2023/02/06 06:22:35;;;;;;;0.00;0.00;;;;;;;4.80;60.89;103382.47;7362184;19;20014;-57
2023/02/06 06:25:00;;;;;;;0.10;0.10;;;;;;;4.80;61.31;103376.41;7360575;19;20010;-58
2023/02/06 06:27:26;;;;;;;0.00;0.00;;;;;;;4.66;61.07;103353.41;7357837;19;21064;-58
2023/02/06 06:29:51;;;;;;;0.10;0.10;;;;;;;4.73;61.34;103380.44;7357929;19;20798;-58
2023/02/06 06:32:17;;;;;;;0.00;0.00;;;;;;;4.74;61.21;103377.03;7361051;19;20014;-58
2023/02/06 06:34:43;;;;;;;0.00;0.00;;;;;;;4.52;61.18;103349.31;7362543;19;20078;-58
2023/02/06 06:37:08;;;;;;;0.00;0.00;;;;;;;4.69;61.11;103376.81;7362246;19;20014;-58
2023/02/06 06:39:34;;;;;;;0.00;0.00;;;;;;;4.60;61.54;103352.22;7361927;19;20792;-57
2023/02/06 06:42:00;;;;;;;0.10;0.10;;;;;;;4.64;61.29;103374.84;7359819;19;20018;-58
2023/02/06 06:44:25;;;;;;;0.10;0.10;;;;;;;4.53;61.21;103356.25;7361687;19;20014;-58
2023/02/06 06:46:51;;;;;;;0.10;0.10;;;;;;;4.59;61.28;103369.47;7360517;19;20047;-55
2023/02/06 06:49:16;;;;;;;0.10;0.10;;;;;;;4.51;61.51;103354.41;7362385;19;20039;-58
2023/02/06 06:51:42;;;;;;;0.10;0.10;;;;;;;4.35;61.42;103330.44;7359991;19;20587;-58
2023/02/06 06:54:07;;;;;;;0.00;0.00;;;;;;;4.47;61.14;103349.94;7357587;19;20010;-57
2023/02/06 06:56:32;;;;;;;0.10;0.10;;;;;;;4.42;61.50;103348.00;7356197;19;20002;-58
2023/02/06 06:58:58;;;;;;;0.00;0.00;;;;;;;4.43;61.29;103354.06;7350220;19;20034;-58
2023/02/06 07:01:23;;;;;;;0.00;0.00;;;;;;;4.34;61.53;103344.19;7357148;19;20010;-57
2023/02/06 07:03:49;;;;;;;0.10;0.10;;;;;;;4.32;61.49;103335.47;7358522;19;20002;-58
2023/02/06 07:06:15;;;;;;;0.08;0.08;;;;;;;4.31;61.36;103333.72;7357732;19;20124;-57
2023/02/06 07:08:41;;;;;;;0.00;0.00;;;;;;;4.34;61.58;103336.44;7345824;19;20022;-58
2023/02/06 07:11:13;;;;;;;0.00;0.00;;;;;;;4.37;61.35;103346.91;7357114;19;20018;-58
2023/02/06 07:13:40;;;;;;;0.00;0.00;;;;;;;4.20;61.49;103306.47;7358603;19;20022;-58
2023/02/06 07:16:06;;;;;;;0.10;0.10;;;;;;;4.35;61.79;103335.59;7360712;19;20101;-58
2023/02/06 07:18:31;;;;;;;0.00;0.00;;;;;;;4.24;61.61;103310.06;7358476;19;20416;-56
2023/02/06 07:20:57;;;;;;;0.00;0.00;;;;;;;4.39;61.99;103334.94;7356272;19;22211;-58
2023/02/06 07:23:22;;;;;;;0.10;0.10;;;;;;;4.42;62.21;103332.50;7356082;19;20550;-58
2023/02/06 07:25:48;;;;;;;0.00;0.00;;;;;;;4.48;62.71;103325.81;7359712;19;20086;-57
2023/02/06 07:28:14;;;;;;;0.03;0.03;;;;;;;4.54;62.99;103326.09;7356158;19;20010;-58
2023/02/06 07:30:39;;;;;;;0.10;0.10;;;;;;;4.58;63.63;103318.53;7358146;19;20462;-58
2023/02/06 07:33:05;;;;;;;0.00;0.00;;;;;;;4.65;63.67;103314.50;7357883;19;20093;-58
2023/02/06 07:35:30;;;;;;;0.00;0.00;;;;;;;4.77;63.78;103315.03;7359381;19;20007;-57
2023/02/06 07:37:56;;;;;;;0.00;0.00;;;;;;;4.84;63.56;103322.25;7356872;19;20021;-57
2023/02/06 07:40:22;;;;;;;0.10;0.10;;;;;;;4.94;63.54;103319.22;7357830;19;20064;-58
2023/02/06 07:42:47;;;;;;;0.10;0.10;;;;;;;5.04;63.79;103329.97;7351935;19;20048;-58
2023/02/06 07:45:13;;;;;;;0.10;0.10;;;;;;;5.05;63.86;103313.63;7355226;19;20024;-59
2023/02/06 07:47:38;;;;;;;0.00;0.00;;;;;;;5.12;63.67;103313.94;7358723;19;20007;-58
2023/02/06 07:50:04;;;;;;;0.10;0.10;;;;;;;5.20;63.65;103311.66;7356312;19;20014;-58
2023/02/06 07:52:30;;;;;;;0.10;0.10;;;;;;;5.33;63.97;103326.91;7355944;19;20017;-57
2023/02/06 07:54:55;;;;;;;0.10;0.10;;;;;;;5.39;63.56;103319.38;7360154;19;20466;-56
2023/02/06 07:57:20;;;;;;;0.10;0.10;;;;;;;5.52;63.31;103330.22;7362528;19;20002;-58
2023/02/06 07:59:46;;;;;;;0.00;0.00;;;;;;;5.53;63.85;103314.75;7363306;19;20007;-58
2023/02/06 08:02:11;;;;;;;0.00;0.00;;;;;;;5.71;63.89;103332.72;7361317;19;20129;-58
2023/02/06 08:04:37;;;;;;;0.03;0.03;;;;;;;5.80;64.08;103338.28;7360935;19;20010;-58
2023/02/06 08:07:04;;;;;;;0.00;0.00;;;;;;;5.84;64.04;103340.16;7363506;19;20013;-58
2023/02/06 08:09:30;;;;;;;0.00;0.00;;;;;;;5.91;64.04;103347.38;7354183;19;20006;-57
2023/02/06 08:11:55;;;;;;;0.10;0.10;;;;;;;5.96;63.78;103353.63;7365089;19;20029;-58
2023/02/06 08:14:20;;;;;;;0.03;0.03;;;;;;;5.96;64.15;103338.06;7364003;19;20010;-58
2023/02/06 08:16:48;;;;;;;0.00;0.00;;;;;;;6.05;63.88;103349.63;7363764;19;20014;-58
2023/02/06 08:19:13;;;;;;;0.10;0.10;;;;;;;5.98;63.45;103326.06;7362843;19;20785;-59
2023/02/06 08:21:39;;;;;;;0.10;0.10;;;;;;;5.96;63.28;103325.09;7362405;19;20006;-58
2023/02/06 08:24:05;;;;;;;0.10;0.10;;;;;;;6.01;63.51;103329.59;7359512;19;20028;-58
2023/02/06 08:26:31;;;;;;;0.00;0.00;;;;;;;6.06;63.78;103335.84;7357656;19;20042;-57
2023/02/06 08:28:59;;;;;;;0.10;0.10;;;;;;;6.13;63.79;103343.00;7364637;19;20011;-58
2023/02/06 08:31:32;;;;;;;0.00;0.00;;;;;;;6.17;63.35;103339.72;7360074;19;20015;-58
2023/02/06 08:33:57;;;;;;;0.10;0.10;;;;;;;6.04;63.46;103316.75;7363225;19;20039;-57
2023/02/06 08:36:24;;;;;;;0.10;0.10;;;;;;;6.17;63.70;103332.81;7362391;19;20014;-59
2023/02/06 08:38:51;;;;;;;0.10;0.10;;;;;;;6.21;63.44;103345.09;7359479;19;20026;-58
2023/02/06 08:41:23;;;;;;;0.00;0.00;;;;;;;6.23;63.46;103334.75;7357141;19;20034;-58
2023/02/06 08:43:50;;;;;;;0.00;0.00;;;;;;;6.22;63.33;103328.69;7360124;19;20748;-58
2023/02/06 08:46:17;;;;;;;0.10;0.10;;;;;;;6.31;63.33;103343.72;7359952;19;20002;-58
2023/02/06 08:48:43;;;;;;;0.00;0.00;;;;;;;6.34;63.34;103342.97;7365954;19;20489;-58
2023/02/06 08:51:09;;;;;;;0.10;0.10;;;;;;;6.38;63.23;103339.63;7358698;19;20433;-58
2023/02/06 08:53:35;;;;;;;0.10;0.10;;;;;;;6.41;63.14;103335.44;7362384;19;20013;-58
2023/02/06 08:56:05;;;;;;;0.00;0.00;;;;;;;6.46;63.59;103339.09;7359405;19;20014;-58
2023/02/06 08:58:31;;;;;;;0.10;0.10;;;;;;;6.32;63.56;103306.56;7355838;19;20011;-58
2023/02/06 09:00:56;;;;;;;0.10;0.10;;;;;;;6.53;63.42;103334.13;7364649;19;20013;-57
2023/02/06 09:03:22;;;;;;;0.00;0.00;;;;;;;6.57;63.63;103325.63;7342779;19;20015;-59
2023/02/06 09:05:48;;;;;;;0.00;0.00;;;;;;;6.63;63.27;103331.03;7362858;19;20011;-58
2023/02/06 09:08:15;;;;;;;0.10;0.10;;;;;;;6.68;63.74;103332.06;7364389;19;20007;-58
2023/02/06 09:10:40;;;;;;;0.00;0.00;;;;;;;6.67;63.46;103319.91;7363871;19;20017;-58
2023/02/06 09:13:05;;;;;;;0.00;0.00;;;;;;;6.66;63.30;103307.78;7363842;19;20002;-58
2023/02/06 09:15:31;;;;;;;0.10;0.10;;;;;;;6.83;63.60;103319.63;7361873;19;20011;-57
2023/02/06 09:17:56;;;;;;;0.10;0.10;;;;;;;6.90;63.66;103321.63;7359364;19;20354;-58
2023/02/06 09:20:25;;;;;;;0.00;0.00;;;;;;;6.99;63.90;103316.75;7362028;19;20011;-58
2023/02/06 09:22:51;;;;;;;0.10;0.10;;;;;;;7.09;63.75;103323.09;7357466;19;20090;-57
2023/02/06 09:25:16;;;;;;;0.00;0.00;;;;;;;7.18;64.32;103317.34;7361614;19;20081;-56
2023/02/06 09:27:45;;;;;;;0.10;0.10;;;;;;;7.28;64.29;103325.50;7359477;19;20124;-58
2023/02/06 09:30:14;;;;;;;0.00;0.00;;;;;;;7.30;64.07;103320.38;7363286;19;20010;-58
2023/02/06 09:32:39;;;;;;;0.00;0.00;;;;;;;7.19;64.23;103277.53;7360141;19;20639;-58
2023/02/06 09:35:05;;;;;;;0.10;0.10;;;;;;;7.53;64.38;103321.97;7359463;19;20014;-58
2023/02/06 09:37:31;;;;;;;0.00;0.00;;;;;;;7.67;64.32;103326.75;7363046;19;20012;-59
2023/02/06 09:39:56;;;;;;;0.00;0.00;;;;;;;7.75;63.86;103318.31;7355217;19;20031;-57
2023/02/06 09:42:34;;;;;;;0.10;0.10;;;;;;;7.77;64.11;103300.19;7359351;19;20006;-58
2023/02/06 09:45:21;;;;;;;0.10;0.10;;;;;;;8.01;63.63;103321.72;7362724;19;20014;-59
2023/02/06 09:47:52;;;;;;;0.00;0.00;;;;;;;8.13;64.12;103325.53;7361491;19;20051;-59
2023/02/06 09:50:24;;;;;;;0.00;0.00;;;;;;;8.24;63.90;103313.69;7358645;19;21252;-58
2023/02/06 09:53:10;;;;;;;0.10;0.10;;;;;;;8.41;64.01;103309.00;7358802;19;20021;-59
2023/02/06 09:55:40;;;;;;;0.10;0.10;;;;;;;8.57;64.12;103314.69;7356888;19;20010;-58
2023/02/06 09:58:21;;;;;;;0.10;0.10;;;;;;;8.77;64.04;103319.56;7360774;19;20011;-58
2023/02/06 10:01:15;;;;;;;0.00;0.00;;;;;;;8.98;63.50;103312.31;7363508;19;20014;-58
2023/02/06 10:04:00;;;;;;;0.10;0.10;;;;;;;9.08;63.17;103306.50;7258325;19;2004159;-58
2023/02/06 10:06:52;;;;;;;0.00;0.00;;;;;;;9.14;63.21;103291.84;7356913;19;20042;-59
2023/02/06 10:09:24;;;;;;;0.00;0.00;;;;;;;9.22;63.15;103292.91;7251927;19;2004483;-58
2023/02/06 10:11:59;;;;;;;0.10;0.10;;;;;;;9.37;62.88;103301.09;7354220;19;20019;-59
2023/02/06 10:14:42;;;;;;;0.00;0.00;;;;;;;9.46;62.60;103290.88;7354638;19;20110;-59
2023/02/06 10:17:33;;;;;;;0.10;0.10;;;;;;;9.53;62.54;103292.81;7355896;19;20018;-58
2023/02/06 10:20:54;;;;;;;0.00;0.00;;;;;;;9.59;62.25;103290.31;7249748;19;2005075;-59
2023/02/06 10:23:23;;;;;;;0.10;0.10;;;;;;;9.58;62.60;103291.19;7151915;19;2004493;-59
2023/02/06 10:26:04;;;;;;;0.00;0.00;;;;;;;9.52;62.45;103267.53;7356332;19;20126;-58
2023/02/06 10:28:32;;;;;;;0.00;0.00;;;;;;;9.69;62.61;103278.38;7360241;19;20799;-58
2023/02/06 10:31:49;;;;;;;0.00;0.00;;;;;;;9.77;61.99;103291.56;7358690;19;20027;-58
2023/02/06 10:34:36;;;;;;;;;;;;;;;9.84;62.02;103285.66;7257920;19;2004384;-58
2023/02/06 10:37:26;;;;;;;0.10;0.10;;;;;;;9.71;61.96;103255.78;7359265;19;19928;-59
2023/02/06 10:40:36;;;;;;;0.00;0.00;;;;;;;9.92;62.08;103276.25;7351827;19;20002;-59
2023/02/06 10:43:19;;;;;;;0.05;0.05;;;;;;;9.98;62.38;103265.03;7251880;19;2004389;-57
2023/02/06 10:46:01;;;;;;;0.10;0.10;;;;;;;10.07;62.21;103276.56;7347109;19;20002;-57
2023/02/06 10:48:43;;;;;;;0.05;0.05;;;;;;;10.20;62.27;103266.38;7354638;19;20781;-58
2023/02/06 10:51:18;;;;;;;0.10;0.10;;;;;;;10.30;62.30;103269.25;7354926;19;20050;-59
2023/02/06 10:53:48;;;;;;;0.03;0.03;;;;;;;10.43;62.14;103254.66;7355928;19;20936;-59
2023/02/06 10:56:18;;;;;;;0.10;0.10;;;;;;;10.58;62.43;103262.78;7357640;19;20049;-58
2023/02/06 10:58:53;;;;;;;0.00;0.00;;;;;;;10.74;62.10;103260.44;7354399;19;20033;-58
2023/02/06 11:01:21;;;;;;;0.00;0.00;;;;;;;10.85;61.46;103258.94;7356812;19;20090;-59
2023/02/06 11:03:56;;;;;;;0.10;0.10;;;;;;;10.80;61.46;103230.09;7354831;19;20006;-58
2023/02/06 11:06:26;;;;;;;0.10;0.10;;;;;;;11.04;60.90;103255.75;7354611;19;20014;-59
2023/02/06 11:08:52;;;;;;;0.03;0.03;;;;;;;11.08;60.75;103247.09;7356214;19;20021;-59
2023/02/06 11:11:20;;;;;;;0.00;0.00;;;;;;;11.18;60.56;103254.22;7355405;19;20014;-58
2023/02/06 11:13:51;;;;;;;0.10;0.10;;;;;;;11.24;60.53;103256.06;7354821;19;20116;-57
2023/02/06 11:16:23;;;;;;;0.00;0.00;;;;;;;11.26;60.03;103241.28;7357162;19;20025;-59
2023/02/06 11:18:50;;;;;;;0.00;0.00;;;;;;;11.27;59.76;103250.00;7353820;19;22092;-59
2023/02/06 11:21:52;;;;;;;0.08;0.08;;;;;;;11.33;60.26;103247.47;7356250;19;20010;-58
2023/02/06 11:24:21;;;;;;;0.00;0.00;;;;;;;11.27;59.63;103231.69;7253519;19;2004159;-57
2023/02/06 11:26:49;;;;;;;0.00;0.00;;;;;;;11.35;59.80;103245.75;7354204;19;20605;-58
2023/02/06 11:29:21;;;;;;;0.10;0.10;;;;;;;11.38;59.28;103240.59;7359331;19;20486;-60
2023/02/06 11:32:07;;;;;;;0.00;0.00;;;;;;;11.47;59.56;103232.88;7361551;19;20010;-59
2023/02/06 11:34:52;;;;;;;0.10;0.10;;;;;;;11.48;59.09;103239.84;7353882;19;20098;-57
2023/02/06 11:37:31;;;;;;;0.10;0.10;;;;;;;11.47;59.19;103232.88;7353124;19;20825;-58
2023/02/06 11:40:16;;;;;;;0.00;0.00;;;;;;;11.53;59.38;103240.78;7356760;19;20031;-58
2023/02/06 11:42:51;;;;;;;0.00;0.00;;;;;;;11.54;58.78;103234.69;7357600;19;20006;-58
2023/02/06 11:45:37;;;;;;;0.00;0.00;;;;;;;11.58;58.97;103225.16;7361185;19;20014;-58